Time;durP1;ratioP1;P1;durP2;ratioP2;P2;SDS_P1;SDS_P2;PMS_P1;PMS_P2;Temp;Humidity;BMP_temperature;BMP_pressure;BME280_temperature;BME280_humidity;BME280_pressure;Samples;Min_cycle;Max_cycle;Signal;HPM_P1;HPM_P2
2022/05/23 00:02:21;;;;;;;5.30;1.42;;;;;;;17.81;89.77;97937.88;4980970;28;20083;-68
2022/05/23 00:04:47;;;;;;;4.13;1.20;;;;;;;17.71;92.30;97935.09;4944037;28;20031;-67
2022/05/23 00:07:19;;;;;;;4.55;1.30;;;;;;;17.64;93.86;97943.56;4947230;28;20435;-68
2022/05/23 00:09:44;;;;;;;2.75;1.58;;;;;;;17.56;95.18;97951.50;4936572;28;20023;-68
2022/05/23 00:12:10;;;;;;;2.97;1.15;;;;;;;17.42;96.99;97929.28;4937111;28;20154;-67
2022/05/23 00:14:35;;;;;;;3.55;1.60;;;;;;;17.46;95.67;97944.06;4970127;28;20401;-68
2022/05/23 00:17:00;;;;;;;6.03;1.17;;;;;;;17.38;95.79;97948.16;4933216;28;20043;-68
2022/05/23 00:19:26;;;;;;;3.45;1.60;;;;;;;17.26;96.81;97934.69;4946103;28;20186;-68
2022/05/23 00:21:51;;;;;;;2.33;1.30;;;;;;;17.17;98.08;97950.00;4950332;28;20102;-67
2022/05/23 00:24:18;;;;;;;3.10;1.45;;;;;;;16.99;99.26;97936.78;5017886;28;20036;-68
2022/05/23 00:26:46;;;;;;;2.35;1.40;;;;;;;16.96;100.00;97942.78;4948807;28;20024;-68
2022/05/23 00:29:12;;;;;;;6.45;1.35;;;;;;;16.80;100.00;97931.78;4975125;28;20389;-67
2022/05/23 00:35:17;;;;;;;2.95;1.30;;;;;;;16.75;100.00;97945.38;5007228;28;20092;-67
2022/05/23 00:37:07;;;;;;;3.50;1.60;;;;;;;16.49;100.00;97917.09;4952989;28;20511;-67
2022/05/23 00:39:32;;;;;;;5.50;1.70;;;;;;;16.49;100.00;97900.72;4934506;28;20040;-67
2022/05/23 00:44:41;;;;;;;2.25;1.10;;;;;;;16.37;100.00;97881.81;4952649;29;20058;-67
2022/05/23 00:47:24;;;;;;;2.67;1.40;;;;;;;16.36;100.00;97899.25;4952771;29;20027;-68
2022/05/23 00:49:50;;;;;;;3.63;1.50;;;;;;;16.25;100.00;97903.00;5009016;28;20506;-68
2022/05/23 00:52:24;;;;;;;2.10;1.42;;;;;;;16.15;100.00;97889.28;4979484;28;20039;-68
2022/05/23 00:54:51;;;;;;;3.42;1.55;;;;;;;16.12;100.00;97892.53;4952543;29;20110;-68
2022/05/23 00:57:20;;;;;;;4.82;1.55;;;;;;;16.09;100.00;97896.63;5023783;28;20485;-67
2022/05/23 00:59:46;;;;;;;3.97;1.70;;;;;;;16.08;100.00;97888.69;4932580;28;20061;-69
2022/05/23 01:02:13;;;;;;;2.25;1.38;;;;;;;16.05;100.00;97883.75;4941265;28;20119;-69
2022/05/23 01:04:39;;;;;;;1.70;1.27;;;;;;;16.00;100.00;97890.81;5016012;28;20026;-68
2022/05/23 01:07:05;;;;;;;2.47;1.52;;;;;;;15.86;100.00;97886.06;4933147;28;20032;-68
2022/05/23 01:09:31;;;;;;;3.35;1.50;;;;;;;15.70;100.00;97866.03;4933135;28;20111;-68
2022/05/23 01:11:59;;;;;;;4.80;1.73;;;;;;;15.60;100.00;97874.06;4958950;28;20120;-68
2022/05/23 01:14:26;;;;;;;4.65;1.80;;;;;;;15.45;100.00;97864.66;4945315;29;20473;-69
2022/05/23 01:16:52;;;;;;;4.00;1.73;;;;;;;15.45;100.00;97869.28;4961392;28;20471;-68
2022/05/23 01:19:17;;;;;;;3.20;1.40;;;;;;;15.41;100.00;97862.72;4981185;28;20526;-68
2022/05/23 01:21:54;;;;;;;1.88;1.38;;;;;;;15.32;100.00;97867.78;4940703;28;20051;-69
2022/05/23 01:24:59;;;;;;;5.47;1.73;;;;;;;15.27;100.00;97848.66;4927431;28;20036;-68
2022/05/23 01:27:28;;;;;;;3.33;1.60;;;;;;;15.40;100.00;97850.97;4956727;28;20569;-69
2022/05/23 01:29:54;;;;;;;6.33;1.70;;;;;;;15.42;100.00;97837.09;4966691;28;20031;-68
2022/05/23 01:32:19;;;;;;;2.63;1.60;;;;;;;15.38;100.00;97831.34;4934526;28;20357;-68
2022/05/23 01:34:44;;;;;;;1.73;1.38;;;;;;;15.27;100.00;97830.44;4940605;28;20019;-69
2022/05/23 01:37:10;;;;;;;2.35;1.95;;;;;;;15.14;100.00;97803.59;4948299;28;20032;-68
2022/05/23 01:39:35;;;;;;;2.97;1.55;;;;;;;15.31;100.00;97819.84;4936578;28;20044;-69
2022/05/23 01:42:01;;;;;;;2.75;1.60;;;;;;;15.18;100.00;97820.25;5004146;28;20500;-68
2022/05/23 01:44:28;;;;;;;5.78;1.90;;;;;;;15.16;100.00;97819.69;4973903;28;20059;-69
2022/05/23 01:46:53;;;;;;;5.28;1.92;;;;;;;15.08;100.00;97832.69;4943777;28;20025;-69
2022/05/23 01:49:20;;;;;;;4.05;2.00;;;;;;;15.00;100.00;97824.97;4937224;28;20030;-68
2022/05/23 01:51:45;;;;;;;3.50;1.80;;;;;;;14.92;100.00;97830.88;4946390;28;20406;-70
2022/05/23 01:54:12;;;;;;;3.42;1.73;;;;;;;14.78;100.00;97835.09;4934786;28;20034;-68
2022/05/23 01:56:38;;;;;;;4.65;2.10;;;;;;;14.63;100.00;97820.19;4997708;28;20508;-69
2022/05/23 02:01:47;;;;;;;3.30;1.63;;;;;;;14.59;100.00;97834.56;4946467;28;20055;-69
2022/05/23 02:04:12;;;;;;;4.30;1.63;;;;;;;14.51;100.00;97830.34;4946845;28;20470;-69
2022/05/23 02:06:37;;;;;;;2.47;1.58;;;;;;;14.48;100.00;97825.41;4934931;28;20098;-69
2022/05/23 02:09:04;;;;;;;2.78;1.80;;;;;;;14.40;100.00;97815.78;4939167;28;20557;-69
2022/05/23 02:11:29;;;;;;;5.32;2.00;;;;;;;14.36;100.00;97813.84;4939668;28;20497;-70
2022/05/23 02:13:55;;;;;;;3.85;1.80;;;;;;;14.28;100.00;97798.78;5029466;28;20061;-69
2022/05/23 02:16:22;;;;;;;5.65;1.67;;;;;;;14.42;100.00;97812.81;4972352;28;20036;-69
2022/05/23 02:18:47;;;;;;;8.40;3.03;;;;;;;14.46;100.00;97794.91;5026368;28;20025;-70
2022/05/23 02:21:13;;;;;;;3.35;1.90;;;;;;;14.67;100.00;97809.59;4935306;28;20024;-69
2022/05/23 02:23:38;;;;;;;2.75;1.92;;;;;;;14.79;100.00;97801.31;4962666;28;20055;-69
2022/05/23 02:26:04;;;;;;;4.32;1.80;;;;;;;14.58;100.00;97773.84;4974471;28;20052;-68
2022/05/23 02:28:30;;;;;;;2.55;1.80;;;;;;;14.64;100.00;97805.50;5001068;28;20036;-69
2022/05/23 02:30:55;;;;;;;5.35;1.92;;;;;;;14.55;100.00;97793.41;4953494;28;20368;-69
2022/05/23 02:33:21;;;;;;;4.05;2.08;;;;;;;14.46;100.00;97798.47;4972959;28;20034;-68
2022/05/23 02:35:47;;;;;;;4.60;1.80;;;;;;;14.37;100.00;97793.69;5025577;28;20038;-69
2022/05/23 02:38:13;;;;;;;5.97;1.85;;;;;;;14.24;100.00;97801.16;4947507;28;20109;-69
2022/05/23 02:40:38;;;;;;;5.90;1.75;;;;;;;14.19;100.00;97805.72;4975372;22;20126;-72
2022/05/23 02:43:03;;;;;;;5.55;2.00;;;;;;;14.18;100.00;97802.16;4963437;28;20039;-71
2022/05/23 02:45:29;;;;;;;2.17;1.70;;;;;;;14.15;100.00;97786.34;5027091;28;20160;-72
2022/05/23 02:47:54;;;;;;;4.13;2.10;;;;;;;14.17;100.00;97764.31;4969643;28;20115;-71
2022/05/23 02:50:19;;;;;;;3.58;1.90;;;;;;;14.19;100.00;97764.91;4968942;28;20046;-72
2022/05/23 02:52:45;;;;;;;2.65;1.83;;;;;;;14.21;100.00;97766.28;4969782;28;20026;-72
2022/05/23 02:55:11;;;;;;;3.72;2.03;;;;;;;14.15;100.00;97764.59;4968845;28;20030;-72
2022/05/23 02:57:37;;;;;;;3.17;2.10;;;;;;;14.10;100.00;97756.38;5010593;28;20656;-75
2022/05/23 03:00:05;;;;;;;2.80;1.90;;;;;;;14.08;100.00;97752.25;5035160;28;20026;-72
2022/05/23 03:05:40;;;;;;;3.75;2.10;;;;;;;14.19;100.00;97741.25;5021614;28;20037;-72
2022/05/23 03:08:06;;;;;;;3.85;1.80;;;;;;;14.23;100.00;97728.78;5018032;28;20041;-72
2022/05/23 03:10:31;;;;;;;3.50;1.73;;;;;;;14.28;100.00;97727.19;4993668;28;20039;-71
2022/05/23 03:12:57;;;;;;;3.97;1.90;;;;;;;14.24;100.00;97716.00;4969451;28;20486;-71
2022/05/23 03:15:23;;;;;;;4.82;2.40;;;;;;;14.35;100.00;97719.66;4967803;28;20035;-71
2022/05/23 03:17:48;;;;;;;4.40;2.70;;;;;;;14.32;100.00;97712.00;4969500;28;20029;-71
2022/05/23 03:20:15;;;;;;;3.60;2.15;;;;;;;14.41;100.00;97716.75;4957810;28;20030;-69
2022/05/23 03:28:08;;;;;;;1.98;1.50;;;;;;;14.74;100.00;97695.06;4964436;28;20033;-71
2022/05/23 03:30:34;;;;;;;4.57;1.90;;;;;;;14.82;100.00;97692.69;5033144;28;20109;-74
2022/05/23 03:33:00;;;;;;;4.13;1.83;;;;;;;14.92;100.00;97689.25;4972759;28;20118;-73
2022/05/23 03:35:29;;;;;;;4.03;1.90;;;;;;;14.80;100.00;97694.03;4970877;28;20034;-73
2022/05/23 03:37:55;;;;;;;3.08;1.83;;;;;;;14.51;100.00;97679.84;4968780;28;20031;-73
2022/05/23 03:40:20;;;;;;;4.18;1.80;;;;;;;14.64;100.00;97703.94;4966360;28;20038;-68
2022/05/23 03:42:46;;;;;;;4.95;2.05;;;;;;;14.63;100.00;97692.25;4976965;28;20388;-74
2022/05/23 03:45:11;;;;;;;6.10;1.92;;;;;;;14.82;100.00;97709.03;4969795;28;20049;-73
2022/05/23 03:47:37;;;;;;;3.70;1.67;;;;;;;14.88;100.00;97696.28;4974904;28;20468;-73
2022/05/23 03:50:03;;;;;;;2.53;1.73;;;;;;;14.95;100.00;97713.25;4974819;28;20022;-73
2022/05/23 03:52:28;;;;;;;3.28;1.75;;;;;;;14.88;100.00;97715.34;5049546;28;20034;-72
2022/05/23 03:54:53;;;;;;;4.85;1.88;;;;;;;14.78;100.00;97718.81;4979893;28;20026;-74
2022/05/23 03:57:19;;;;;;;3.90;1.80;;;;;;;14.86;100.00;97731.97;4971693;28;20023;-73
2022/05/23 03:59:45;;;;;;;8.60;1.80;;;;;;;14.93;100.00;97729.00;4972966;28;20537;-73
2022/05/23 04:02:11;;;;;;;5.80;2.28;;;;;;;15.13;100.00;97731.94;4982062;28;20064;-73
2022/05/23 04:04:37;;;;;;;3.25;1.60;;;;;;;15.24;100.00;97711.03;4972879;28;20484;-73
2022/05/23 04:07:04;;;;;;;3.53;1.55;;;;;;;15.50;100.00;97741.22;4972340;28;20050;-74
2022/05/23 04:09:30;;;;;;;3.08;1.55;;;;;;;15.64;100.00;97771.56;4986385;28;20046;-74
2022/05/23 04:11:57;;;;;;;4.10;1.90;;;;;;;15.62;100.00;97815.47;4977510;28;20093;-74
2022/05/23 04:14:25;;;;;;;8.23;2.25;;;;;;;15.49;100.00;97905.88;4973071;28;20033;-74
2022/05/23 04:16:51;;;;;;;5.53;2.10;;;;;;;15.39;100.00;97973.91;5006594;28;20046;-65
2022/05/23 04:19:17;;;;;;;3.95;1.88;;;;;;;15.49;100.00;98004.81;4961671;28;20028;-67
2022/05/23 04:21:44;;;;;;;5.97;2.25;;;;;;;15.57;100.00;97998.91;4970870;28;20027;-67
2022/05/23 04:24:10;;;;;;;3.33;2.20;;;;;;;15.64;100.00;97992.44;4970479;28;20081;-67
2022/05/23 04:26:36;;;;;;;5.20;1.98;;;;;;;15.71;100.00;98004.00;4972122;28;20038;-70
2022/05/23 04:29:03;;;;;;;4.13;2.00;;;;;;;15.72;100.00;98011.94;4972125;28;20039;-69
2022/05/23 04:31:28;;;;;;;8.18;2.15;;;;;;;15.61;100.00;98020.22;4972401;28;20030;-69
2022/05/23 04:36:38;;;;;;;11.23;2.88;;;;;;;15.31;100.00;98005.16;4970836;28;20467;-68
2022/05/23 04:39:03;;;;;;;5.43;2.88;;;;;;;15.21;100.00;98022.19;4970684;28;20044;-67
2022/05/23 04:41:28;;;;;;;4.40;2.53;;;;;;;15.12;100.00;98027.25;4970118;28;20030;-67
2022/05/23 04:43:54;;;;;;;7.38;2.55;;;;;;;15.13;100.00;98017.19;4972915;28;20117;-72
2022/05/23 04:46:19;;;;;;;7.20;2.50;;;;;;;15.10;100.00;98010.34;5052913;28;20027;-68
2022/05/23 04:51:28;;;;;;;8.23;2.60;;;;;;;15.15;100.00;98016.94;4965466;28;20095;-67
2022/05/23 04:53:53;;;;;;;3.70;2.53;;;;;;;14.98;100.00;98015.06;4960382;28;20388;-68
2022/05/23 04:56:21;;;;;;;6.78;3.22;;;;;;;15.00;100.00;98018.38;4964093;28;20548;-67
2022/05/23 04:58:46;;;;;;;6.15;2.83;;;;;;;14.88;100.00;98014.91;4971104;28;20027;-67
2022/05/23 05:01:12;;;;;;;4.28;2.80;;;;;;;14.89;100.00;98017.41;4971010;28;20149;-68
2022/05/23 05:03:37;;;;;;;10.15;3.35;;;;;;;14.76;100.00;98000.59;4973052;28;20027;-68
2022/05/23 05:06:03;;;;;;;8.85;3.35;;;;;;;14.59;100.00;97960.63;4968805;28;20049;-73
2022/05/23 05:08:30;;;;;;;13.50;3.60;;;;;;;14.56;100.00;97950.19;4969163;28;20019;-74
2022/05/23 05:10:59;;;;;;;6.03;3.13;;;;;;;14.50;100.00;97950.38;4971929;28;20561;-74
2022/05/23 05:13:25;;;;;;;6.88;3.22;;;;;;;14.48;100.00;97945.97;4972220;28;20123;-74
2022/05/23 05:15:51;;;;;;;7.93;3.50;;;;;;;14.29;100.00;97909.25;4969841;28;20045;-74
2022/05/23 05:18:17;;;;;;;9.10;3.38;;;;;;;14.31;100.00;97892.69;4973337;28;20023;-72
2022/05/23 05:20:42;;;;;;;8.60;4.18;;;;;;;14.21;100.00;97890.63;5010395;28;20045;-71
2022/05/23 05:23:08;;;;;;;5.60;3.13;;;;;;;14.13;100.00;97880.16;5034355;28;20036;-72
2022/05/23 05:25:33;;;;;;;9.38;3.70;;;;;;;14.19;100.00;97877.25;4986766;28;20027;-72
2022/05/23 05:27:58;;;;;;;10.95;3.63;;;;;;;14.22;100.00;97865.03;4986281;28;20034;-72
2022/05/23 05:30:24;;;;;;;7.15;4.43;;;;;;;14.13;100.00;97855.69;4986377;28;20026;-75
2022/05/23 05:32:58;;;;;;;5.75;3.38;;;;;;;14.26;100.00;97866.22;4975689;28;20066;-75
2022/05/23 05:35:37;;;;;;;5.60;3.30;;;;;;;14.24;100.00;97835.69;4977399;28;20372;-73
2022/05/23 05:38:10;;;;;;;9.55;3.42;;;;;;;14.42;100.00;97818.25;5022121;28;20030;-74
2022/05/23 05:40:36;;;;;;;4.70;2.95;;;;;;;14.50;100.00;97841.50;5008163;28;20114;-74
2022/05/23 05:43:12;;;;;;;5.88;3.35;;;;;;;14.48;100.00;97853.44;5044698;28;20015;-74
2022/05/23 05:45:48;;;;;;;6.50;3.45;;;;;;;14.71;100.00;97832.53;4984606;28;20079;-74
2022/05/23 05:48:14;;;;;;;6.53;3.25;;;;;;;14.74;100.00;97804.78;4984977;28;20031;-74
2022/05/23 05:50:42;;;;;;;9.25;3.67;;;;;;;15.08;100.00;97793.72;4985094;28;20106;-74
2022/05/23 05:53:11;;;;;;;6.68;2.88;;;;;;;15.21;100.00;97797.94;5055388;28;20023;-75
2022/05/23 05:55:39;;;;;;;3.95;2.53;;;;;;;15.21;100.00;97795.22;4973425;28;20454;-75
2022/05/23 05:58:05;;;;;;;5.82;2.70;;;;;;;15.41;100.00;97809.03;4969783;28;20037;-74
2022/05/23 06:00:30;;;;;;;5.38;3.45;;;;;;;15.39;100.00;97778.47;5006685;28;20023;-72
2022/05/23 06:02:55;;;;;;;6.03;3.70;;;;;;;15.39;100.00;97748.50;4970774;28;20484;-74
2022/05/23 06:05:21;;;;;;;4.25;3.00;;;;;;;15.49;100.00;97732.22;4968036;28;20091;-74
2022/05/23 06:13:14;;;;;;;6.68;3.03;;;;;;;15.69;100.00;97673.47;4970556;28;20073;-74
2022/05/23 06:15:39;;;;;;;7.75;2.85;;;;;;;15.82;100.00;97681.19;4971098;28;20058;-74
2022/05/23 06:18:05;;;;;;;3.85;2.60;;;;;;;16.09;100.00;97702.06;4970604;28;20034;-74
2022/05/23 06:20:30;;;;;;;6.82;2.72;;;;;;;16.18;100.00;97697.72;4966132;28;20059;-75
2022/05/23 06:22:56;;;;;;;6.40;2.58;;;;;;;16.51;100.00;97684.75;4969729;28;20077;-74
2022/05/23 06:25:22;;;;;;;3.75;2.25;;;;;;;16.95;100.00;97685.13;4970814;28;20027;-74
2022/05/23 06:27:48;;;;;;;3.15;2.05;;;;;;;17.27;100.00;97671.19;4970974;28;20027;-74
2022/05/23 06:30:16;;;;;;;4.95;2.55;;;;;;;17.60;100.00;97662.66;4963253;28;20027;-71
2022/05/23 06:32:42;;;;;;;9.23;2.70;;;;;;;17.45;100.00;97644.38;4967491;28;20038;-74
2022/05/23 06:35:08;;;;;;;5.90;2.40;;;;;;;17.26;100.00;97653.13;4969362;28;20472;-74
2022/05/23 06:37:35;;;;;;;4.10;2.40;;;;;;;17.28;100.00;97637.28;4968614;28;20051;-73
2022/05/23 06:40:03;;;;;;;7.75;2.30;;;;;;;17.41;100.00;97626.88;4968483;28;20061;-74
2022/05/23 06:42:29;;;;;;;3.92;2.10;;;;;;;17.31;100.00;97612.13;5053816;28;20034;-72
2022/05/23 06:44:55;;;;;;;4.55;1.75;;;;;;;17.15;100.00;97582.38;4969371;28;20058;-73
2022/05/23 06:47:20;;;;;;;5.10;2.17;;;;;;;17.06;100.00;97576.66;5048980;28;20484;-72
2022/05/23 06:49:45;;;;;;;4.15;2.13;;;;;;;16.84;100.00;97591.41;5018105;28;20026;-73
2022/05/23 06:52:11;;;;;;;2.83;1.80;;;;;;;16.91;100.00;97612.19;4970707;28;20023;-74
2022/05/23 06:54:36;;;;;;;7.97;2.55;;;;;;;16.88;100.00;97590.88;5014087;28;20535;-74
2022/05/23 06:57:02;;;;;;;5.00;2.28;;;;;;;17.24;100.00;97605.31;5055895;28;20122;-72
2022/05/23 06:59:28;;;;;;;3.83;1.90;;;;;;;17.37;100.00;97625.78;4973010;28;20084;-75
2022/05/23 07:01:53;;;;;;;4.28;2.20;;;;;;;17.46;100.00;97614.00;4972080;28;20477;-70
2022/05/23 07:04:18;;;;;;;8.65;1.75;;;;;;;17.97;100.00;97624.00;4964189;28;20031;-69
2022/05/23 07:12:23;;;;;;;3.78;2.10;;;;;;;18.29;100.00;97644.66;4973343;28;20037;-71
2022/05/23 07:14:51;;;;;;;5.55;2.20;;;;;;;19.13;100.00;97629.03;4974795;28;20031;-70
2022/05/23 07:17:17;;;;;;;4.95;1.95;;;;;;;20.02;100.00;97634.16;4972958;28;20050;-70
2022/05/23 07:19:42;;;;;;;6.43;2.10;;;;;;;20.55;100.00;97631.28;4968413;28;20114;-70
2022/05/23 07:22:09;;;;;;;3.42;1.65;;;;;;;21.97;100.00;97636.56;4973688;28;20507;-71
2022/05/23 07:24:34;;;;;;;5.68;2.17;;;;;;;22.20;96.17;97641.09;4970646;28;20026;-69
2022/05/23 07:27:01;;;;;;;7.18;1.85;;;;;;;22.88;88.09;97647.56;4973192;28;20019;-70
2022/05/23 07:29:28;;;;;;;3.85;1.80;;;;;;;23.74;76.78;97648.50;4974612;28;20051;-69
2022/05/23 07:31:54;;;;;;;5.18;1.70;;;;;;;22.69;86.77;97646.94;4976734;28;20515;-71
2022/05/23 07:34:19;;;;;;;3.22;1.98;;;;;;;22.98;83.33;97643.78;4971491;28;20084;-71
2022/05/23 07:36:45;;;;;;;5.45;1.77;;;;;;;22.35;86.88;97642.72;4973127;28;20415;-73
2022/05/23 07:39:11;;;;;;;6.35;2.22;;;;;;;21.97;94.21;97639.34;4973194;28;20026;-71
2022/05/23 07:41:41;;;;;;;3.33;2.00;;;;;;;21.82;96.51;97646.78;4973007;28;20031;-71
2022/05/23 07:44:08;;;;;;;;;;;;;;;21.26;99.75;97649.69;4971440;28;20054;-69
2022/05/23 07:46:34;;;;;;;3.10;1.60;;;;;;;20.74;100.00;97636.75;4973416;28;19910;-69
2022/05/23 07:49:00;;;;;;;5.18;2.00;;;;;;;20.62;100.00;97641.91;4972974;28;20055;-71
2022/05/23 07:51:29;;;;;;;4.13;1.98;;;;;;;20.79;100.00;97633.13;4973095;28;20092;-70
2022/05/23 08:02:09;;;;;;;3.40;2.00;;;;;;;24.00;81.75;97637.56;4974469;28;20434;-71
2022/05/23 08:04:35;;;;;;;2.83;1.70;;;;;;;23.23;86.32;97625.75;4970828;28;20034;-70
2022/05/23 08:07:00;;;;;;;2.45;1.52;;;;;;;22.43;92.01;97627.38;4971575;28;20023;-71
2022/05/23 08:09:26;;;;;;;3.10;1.60;;;;;;;22.41;93.98;97633.19;5026210;28;20349;-69
2022/05/23 08:11:55;;;;;;;6.03;1.60;;;;;;;21.68;99.03;97623.91;4969273;28;20039;-68
2022/05/23 08:14:22;;;;;;;2.60;1.80;;;;;;;21.21;100.00;97621.16;5003912;28;20034;-69
2022/05/23 08:16:49;;;;;;;6.90;1.70;;;;;;;20.93;100.00;97628.53;4972103;28;20039;-68
2022/05/23 08:19:14;;;;;;;3.22;1.88;;;;;;;20.83;100.00;97638.84;4970668;28;20471;-68
2022/05/23 08:21:46;;;;;;;4.80;1.90;;;;;;;20.30;100.00;97640.69;4972046;28;20042;-72
2022/05/23 08:24:12;;;;;;;5.50;2.25;;;;;;;20.52;100.00;97615.38;4966027;28;20349;-70
2022/05/23 08:26:37;;;;;;;4.72;2.10;;;;;;;20.58;100.00;97616.94;4971217;28;20023;-72
2022/05/23 08:29:03;;;;;;;3.17;2.40;;;;;;;20.51;100.00;97626.63;4972794;28;20037;-69
2022/05/23 08:31:28;;;;;;;3.60;1.75;;;;;;;20.65;100.00;97616.56;4970889;28;20389;-70
2022/05/23 08:33:53;;;;;;;4.65;2.35;;;;;;;20.29;100.00;97617.06;4971692;28;20050;-68
2022/05/23 08:36:18;;;;;;;3.75;2.15;;;;;;;20.77;100.00;97605.91;4969465;28;20024;-68
2022/05/23 08:38:44;;;;;;;4.35;2.28;;;;;;;21.08;100.00;97596.38;5029666;28;20035;-68
2022/05/23 08:41:15;;;;;;;3.55;2.03;;;;;;;21.39;100.00;97603.00;5015524;23;20037;-65
2022/05/23 08:43:51;;;;;;;9.50;2.35;;;;;;;21.30;100.00;97595.69;4953106;28;20396;-66
2022/05/23 08:46:26;;;;;;;5.43;2.08;;;;;;;21.38;100.00;97582.09;4949246;28;20038;-66
2022/05/23 08:48:57;;;;;;;7.75;2.13;;;;;;;22.01;100.00;97577.03;4991849;28;20096;-66
2022/05/23 08:51:36;;;;;;;3.45;2.00;;;;;;;22.68;97.06;97570.84;4993126;28;20108;-65
2022/05/23 08:54:10;;;;;;;6.78;1.90;;;;;;;23.24;88.35;97546.56;5014995;28;20035;-64
2022/05/23 08:56:41;;;;;;;4.88;1.85;;;;;;;24.27;83.01;97562.69;4949747;28;20074;-66
2022/05/23 08:59:22;;;;;;;3.30;1.70;;;;;;;24.64;79.77;97557.69;4952530;29;20034;-65
2022/05/23 09:01:51;;;;;;;4.60;1.83;;;;;;;25.26;76.38;97552.91;4952302;29;20035;-65
2022/05/23 09:04:55;;;;;;;6.93;2.00;;;;;;;25.85;70.22;97550.22;4946479;29;20038;-66
2022/05/23 09:07:41;;;;;;;3.47;1.63;;;;;;;26.74;66.29;97546.53;4996657;28;20045;-65
2022/05/23 09:10:16;;;;;;;8.48;1.70;;;;;;;28.13;56.58;97551.31;4990906;28;20035;-65
2022/05/23 09:12:42;;;;;;;7.43;1.52;;;;;;;27.01;63.99;97559.00;4951252;29;20019;-64
2022/05/23 09:15:07;;;;;;;3.05;1.50;;;;;;;26.46;65.93;97555.38;4946839;29;20073;-65
2022/05/23 09:17:39;;;;;;;4.85;1.58;;;;;;;25.89;69.06;97553.16;4951314;28;20032;-65
2022/05/23 09:20:11;;;;;;;5.03;1.80;;;;;;;26.61;66.37;97562.31;4950751;28;20027;-65
2022/05/23 09:22:53;;;;;;;3.25;1.73;;;;;;;26.75;67.38;97559.25;4950542;29;20028;-66
2022/05/23 09:25:22;;;;;;;8.27;1.30;;;;;;;25.89;69.19;97553.16;4991044;28;20109;-67
2022/05/23 09:27:56;;;;;;;6.30;1.58;;;;;;;25.56;71.86;97560.09;5032538;28;20031;-65
2022/05/23 09:30:23;;;;;;;3.30;1.63;;;;;;;26.41;65.71;97561.94;4951883;29;20031;-65
2022/05/23 09:33:01;;;;;;;2.80;1.48;;;;;;;27.61;60.38;97562.28;5015253;28;20020;-65
2022/05/23 09:35:36;;;;;;;3.00;1.58;;;;;;;29.68;50.07;97554.59;4941285;28;20134;-65
2022/05/23 09:38:17;;;;;;;2.10;1.30;;;;;;;29.97;48.33;97555.25;4950987;28;20034;-65
2022/05/23 09:40:50;;;;;;;3.83;1.50;;;;;;;29.18;51.21;97558.78;5101803;27;20377;-66
2022/05/23 09:49:23;;;;;;;7.53;1.98;;;;;;;24.71;76.73;97566.31;5086886;28;20020;-64
2022/05/23 09:51:54;;;;;;;4.10;1.52;;;;;;;25.69;70.85;97557.47;5078937;28;20134;-65
2022/05/23 09:54:43;;;;;;;4.22;1.75;;;;;;;26.21;68.61;97546.91;5081253;28;20043;-66
2022/05/23 09:57:23;;;;;;;3.38;1.90;;;;;;;26.09;70.59;97563.44;5069293;28;20051;-65
2022/05/23 09:59:59;;;;;;;4.53;1.90;;;;;;;26.26;66.58;97576.41;5069379;28;20382;-65
2022/05/23 10:02:41;;;;;;;4.10;1.75;;;;;;;26.48;67.49;97582.78;5068728;28;20080;-65
2022/05/23 10:05:24;;;;;;;4.60;2.00;;;;;;;26.64;62.46;97601.28;5069476;28;20432;-64
2022/05/23 10:07:52;;;;;;;7.80;1.80;;;;;;;27.12;60.59;97587.97;5068808;28;20031;-66
2022/05/23 10:10:25;;;;;;;2.50;1.50;;;;;;;26.62;61.50;97580.59;5077460;28;20482;-65
2022/05/23 10:12:51;;;;;;;3.47;1.95;;;;;;;25.77;69.28;97584.31;5072182;28;20032;-65
2022/05/23 10:15:28;;;;;;;3.88;2.08;;;;;;;24.88;75.70;97589.56;5085920;28;20473;-65
2022/05/23 10:18:04;;;;;;;3.83;1.92;;;;;;;24.54;79.02;97598.69;5071457;28;20021;-64
2022/05/23 10:20:43;;;;;;;4.18;1.98;;;;;;;24.65;79.68;97609.09;5073139;28;20036;-65
2022/05/23 10:23:21;;;;;;;4.95;1.80;;;;;;;25.49;77.75;97614.38;5085552;28;20410;-65
2022/05/23 10:25:58;;;;;;;3.40;1.90;;;;;;;26.02;77.55;97615.84;5080330;28;20561;-65
2022/05/23 10:28:34;;;;;;;6.30;1.88;;;;;;;25.93;74.75;97592.91;5080524;28;20492;-64
2022/05/23 10:31:12;;;;;;;4.10;1.90;;;;;;;26.09;75.29;97612.53;5080282;28;20024;-64
2022/05/23 10:33:39;;;;;;;7.22;2.42;;;;;;;25.96;70.58;97601.38;5082028;28;20031;-65
2022/05/23 10:36:18;;;;;;;5.43;2.42;;;;;;;25.10;75.64;97625.34;5070308;28;20048;-64
2022/05/23 10:42:10;;;;;;;9.48;1.95;;;;;;;24.46;83.95;97625.19;5077746;28;20780;-65
2022/05/23 10:45:00;;;;;;;4.32;2.20;;;;;;;25.04;80.06;97623.88;5075094;28;20047;-64
2022/05/23 10:47:59;;;;;;;7.03;2.25;;;;;;;24.86;81.86;97628.63;5075969;28;20496;-65
2022/05/23 10:50:39;;;;;;;4.28;2.28;;;;;;;24.95;80.24;97633.34;5073989;28;20021;-65
2022/05/23 10:53:16;;;;;;;4.78;2.50;;;;;;;25.01;80.53;97643.91;5074438;28;20020;-64
2022/05/23 10:55:44;;;;;;;5.65;2.47;;;;;;;24.63;80.90;97647.34;5076756;28;20039;-65
2022/05/23 10:58:30;;;;;;;5.55;2.42;;;;;;;24.07;86.55;97646.19;5056298;28;20051;-65
2022/05/23 11:01:27;;;;;;;7.90;2.30;;;;;;;23.69;86.48;97652.19;5060770;28;20104;-66
2022/05/23 11:04:21;;;;;;;8.07;2.75;;;;;;;23.23;90.89;97656.13;5067251;28;20073;-66
2022/05/23 11:07:02;;;;;;;5.30;2.90;;;;;;;22.99;92.44;97644.59;5066752;28;20056;-64
2022/05/23 11:09:57;;;;;;;5.75;2.60;;;;;;;22.89;95.31;97646.44;5060774;28;20020;-65
2022/05/23 11:13:04;;;;;;;7.15;2.92;;;;;;;23.17;94.47;97647.16;5063659;28;20025;-66
2022/05/23 11:15:35;;;;;;;6.63;2.90;;;;;;;23.39;95.90;97662.88;5061035;28;20032;-64
2022/05/23 11:18:22;;;;;;;6.13;2.40;;;;;;;23.49;95.02;97659.06;5062634;28;20093;-65
2022/05/23 11:20:53;;;;;;;5.32;2.50;;;;;;;23.04;99.25;97639.75;5058472;28;20024;-65
2022/05/23 11:23:27;;;;;;;6.53;2.97;;;;;;;22.48;100.00;97674.94;5061514;28;20371;-66
2022/05/23 11:25:58;;;;;;;5.47;2.88;;;;;;;22.13;100.00;97686.66;5059371;28;20028;-64
2022/05/23 11:34:13;;;;;;;5.30;3.63;;;;;;;20.19;100.00;97702.31;5059721;28;20493;-65
2022/05/23 11:39:46;;;;;;;8.30;3.95;;;;;;;19.46;100.00;97739.78;5065893;28;20533;-65
2022/05/23 11:42:14;;;;;;;7.15;4.53;;;;;;;19.20;100.00;97741.09;5058598;28;20085;-65
2022/05/23 11:44:42;;;;;;;6.63;4.15;;;;;;;19.10;100.00;97746.66;5068925;28;20112;-65
2022/05/23 11:47:10;;;;;;;11.43;4.57;;;;;;;19.10;100.00;97746.66;5065039;28;20908;-66
2022/05/23 11:49:44;;;;;;;8.97;4.60;;;;;;;18.99;100.00;97735.78;5068328;28;20081;-65
2022/05/23 11:52:24;;;;;;;13.35;5.50;;;;;;;19.02;100.00;97726.16;5068746;28;20846;-65
2022/05/23 11:54:50;;;;;;;12.00;5.53;;;;;;;19.08;100.00;97729.69;5065705;28;20035;-65
2022/05/23 11:57:33;;;;;;;9.85;4.43;;;;;;;19.28;100.00;97724.03;5057042;28;20032;-65
2022/05/23 12:00:01;;;;;;;6.93;3.88;;;;;;;19.39;100.00;97722.06;5063096;28;20028;-64
2022/05/23 12:02:27;;;;;;;7.10;3.97;;;;;;;19.41;100.00;97711.59;5054531;28;20039;-65
2022/05/23 12:04:54;;;;;;;10.00;3.95;;;;;;;19.42;100.00;97703.09;5061740;28;20201;-65
2022/05/23 12:07:36;;;;;;;6.18;4.00;;;;;;;19.40;100.00;97693.50;5057806;28;20036;-65
2022/05/23 12:10:20;;;;;;;8.70;3.75;;;;;;;19.32;100.00;97675.75;5062259;28;20025;-66
2022/05/23 12:12:53;;;;;;;7.00;4.07;;;;;;;19.37;100.00;97656.50;5056114;28;20029;-66
2022/05/23 12:15:43;;;;;;;7.88;4.80;;;;;;;19.16;100.00;97642.16;5064791;28;20020;-64
2022/05/23 12:18:11;;;;;;;9.15;3.88;;;;;;;18.93;100.00;97616.31;5055687;28;20025;-64
2022/05/23 12:20:50;;;;;;;11.40;4.38;;;;;;;18.75;100.00;97587.69;5045537;28;20946;-65
2022/05/23 12:23:28;;;;;;;7.35;3.70;;;;;;;18.77;100.00;97562.75;5057726;28;20042;-66
2022/05/23 12:26:09;;;;;;;6.90;3.72;;;;;;;18.78;100.00;97536.97;5058975;28;20362;-64
2022/05/23 12:28:56;;;;;;;6.90;3.80;;;;;;;18.84;100.00;97494.72;5071034;28;20361;-67
2022/05/23 12:31:25;;;;;;;6.50;3.33;;;;;;;18.80;100.00;97460.78;5047946;28;20074;-67
2022/05/23 12:34:17;;;;;;;6.35;3.67;;;;;;;18.73;100.00;97409.03;5060844;28;20032;-66
2022/05/23 12:36:52;;;;;;;12.68;4.43;;;;;;;18.73;100.00;97359.72;5044026;28;20045;-67
2022/05/23 12:39:26;;;;;;;9.63;4.60;;;;;;;18.56;100.00;97338.25;5050825;28;20024;-67